createdAt,value
2022-12-24T00:03:52.628Z,986.61
2022-12-24T00:08:52.479Z,986.61
2022-12-24T00:13:52.402Z,986.72
2022-12-24T00:18:52.366Z,986.74
2022-12-24T00:23:52.272Z,986.74
2022-12-24T00:28:52.221Z,986.69
2022-12-24T00:33:52.137Z,986.82
2022-12-24T00:38:52.092Z,986.93
2022-12-24T00:43:52.003Z,987.22
2022-12-24T00:48:51.958Z,987.30
2022-12-24T00:53:51.871Z,987.32
2022-12-24T00:58:51.821Z,987.34
2022-12-24T01:03:51.939Z,987.39
2022-12-24T01:08:51.745Z,987.41
2022-12-24T01:13:51.610Z,987.40
2022-12-24T01:18:51.543Z,987.40
2022-12-24T01:23:51.463Z,987.47
2022-12-24T01:28:51.407Z,987.56
2022-12-24T01:33:51.350Z,987.65
2022-12-24T01:38:51.276Z,987.74
2022-12-24T01:43:51.208Z,987.87
2022-12-24T01:48:51.153Z,987.89
2022-12-24T01:53:51.067Z,988.01
2022-12-24T01:58:51.032Z,988.08
2022-12-24T02:03:51.014Z,988.21
2022-12-24T02:08:50.894Z,988.22
2022-12-24T02:13:50.806Z,988.27
2022-12-24T02:18:50.803Z,988.40
2022-12-24T02:23:50.679Z,988.44
2022-12-24T02:28:50.609Z,988.57
2022-12-24T02:33:50.590Z,988.51
2022-12-24T02:38:50.487Z,988.49
2022-12-24T02:43:50.412Z,988.63
2022-12-24T02:48:50.344Z,988.72
2022-12-24T02:53:50.284Z,988.73
2022-12-24T02:58:50.214Z,988.76
2022-12-24T03:03:50.137Z,988.70
2022-12-24T03:08:50.099Z,988.73
2022-12-24T03:13:50.016Z,988.78
2022-12-24T03:18:49.942Z,988.98
2022-12-24T03:23:49.875Z,989.02
2022-12-24T03:28:49.809Z,989.09
2022-12-24T03:33:49.746Z,989.23
2022-12-24T03:38:49.678Z,989.30
2022-12-24T03:43:49.612Z,989.43
2022-12-24T03:48:49.542Z,989.52
2022-12-24T03:53:49.485Z,989.62
2022-12-24T03:58:49.412Z,989.60
2022-12-24T04:03:49.351Z,989.70
2022-12-24T04:08:49.292Z,989.80
2022-12-24T04:13:49.214Z,989.84
2022-12-24T04:18:49.144Z,989.93
2022-12-24T04:23:49.076Z,989.96
2022-12-24T04:28:49.014Z,990.12
2022-12-24T04:33:48.940Z,990.14
2022-12-24T04:38:48.886Z,990.30
2022-12-24T04:43:48.811Z,990.31
2022-12-24T04:48:48.761Z,990.27
2022-12-24T04:53:48.689Z,990.40
2022-12-24T04:58:48.626Z,990.38
2022-12-24T05:03:48.567Z,990.44
2022-12-24T05:08:48.484Z,990.45
2022-12-24T05:13:48.480Z,990.48
2022-12-24T05:18:48.350Z,990.50
2022-12-24T05:23:48.289Z,990.54
2022-12-24T05:28:48.217Z,990.52
2022-12-24T05:33:48.159Z,990.64
2022-12-24T05:38:48.093Z,990.75
2022-12-24T05:43:48.037Z,990.98
2022-12-24T05:48:47.977Z,991.05
2022-12-24T05:53:47.992Z,990.97
2022-12-24T05:58:47.862Z,991.11
2022-12-24T06:03:47.759Z,991.38
2022-12-24T06:08:47.682Z,991.49
2022-12-24T06:13:47.631Z,991.43
2022-12-24T06:18:47.549Z,991.51
2022-12-24T06:23:47.498Z,991.55
2022-12-24T06:28:47.419Z,991.58
2022-12-24T06:33:47.353Z,991.79
2022-12-24T06:38:47.273Z,991.87
2022-12-24T06:43:47.212Z,991.93
2022-12-24T06:48:47.142Z,992.12
2022-12-24T06:53:47.096Z,992.31
2022-12-24T06:58:47.017Z,992.30
2022-12-24T07:03:47.023Z,992.37
2022-12-24T07:08:46.909Z,992.52
2022-12-24T07:13:46.818Z,992.61
2022-12-24T07:18:46.740Z,992.50
2022-12-24T07:23:46.705Z,992.71
2022-12-24T07:28:46.607Z,992.74
2022-12-24T07:33:46.558Z,992.92
2022-12-24T07:38:46.481Z,993.02
2022-12-24T07:43:46.424Z,993.13
2022-12-24T07:48:46.350Z,993.21
2022-12-24T07:53:46.287Z,993.37
2022-12-24T07:58:46.213Z,993.36
2022-12-24T08:03:46.356Z,993.37
2022-12-24T08:08:46.085Z,993.42
2022-12-24T08:13:46.020Z,993.59
2022-12-24T08:18:45.945Z,993.50
2022-12-24T08:23:45.886Z,993.58
2022-12-24T08:28:45.824Z,993.62
2022-12-24T08:33:45.752Z,993.67
2022-12-24T08:38:45.681Z,993.70
2022-12-24T08:43:45.629Z,993.79
2022-12-24T08:48:45.543Z,993.95
2022-12-24T08:53:45.483Z,993.93
2022-12-24T08:58:45.403Z,993.99
2022-12-24T09:03:45.432Z,994.05
2022-12-24T09:08:45.284Z,994.13
2022-12-24T09:13:45.234Z,994.09
2022-12-24T09:18:45.143Z,994.34
2022-12-24T09:23:45.083Z,994.32
2022-12-24T09:28:45.013Z,994.33
2022-12-24T09:33:44.945Z,994.50
2022-12-24T09:38:44.902Z,994.51
2022-12-24T09:43:44.818Z,994.65
2022-12-24T09:48:44.769Z,994.60
2022-12-24T09:53:44.677Z,994.67
2022-12-24T09:58:44.614Z,994.74
2022-12-24T10:03:44.639Z,994.77
2022-12-24T10:08:44.479Z,994.80
2022-12-24T10:13:44.415Z,994.81
2022-12-24T10:18:49.333Z,994.85
2022-12-24T10:23:44.283Z,994.97
2022-12-24T10:28:44.217Z,994.92
2022-12-24T10:33:44.149Z,995.04
2022-12-24T10:38:44.076Z,995.09
2022-12-24T10:43:44.092Z,995.14
2022-12-24T10:48:50.300Z,995.18
2022-12-24T10:53:43.885Z,995.13
2022-12-24T10:58:43.810Z,995.20
2022-12-24T11:03:43.839Z,995.29
2022-12-24T11:08:43.681Z,995.37
2022-12-24T11:13:43.615Z,995.33
2022-12-24T11:18:48.707Z,995.44
2022-12-24T11:23:43.482Z,995.42
2022-12-24T11:28:43.402Z,995.44
2022-12-24T11:33:43.353Z,995.37
2022-12-24T11:38:43.284Z,995.40
2022-12-24T11:43:43.218Z,995.32
2022-12-24T11:48:43.163Z,995.25
2022-12-24T11:53:43.080Z,995.26
2022-12-24T11:58:43.009Z,995.17
2022-12-24T12:03:43.043Z,995.34
2022-12-24T12:08:42.883Z,995.27
2022-12-24T12:13:42.829Z,995.28
2022-12-24T12:18:42.749Z,995.35
2022-12-24T12:23:42.691Z,995.36
2022-12-24T12:28:42.623Z,995.38
2022-12-24T12:33:42.616Z,995.47
2022-12-24T12:38:42.486Z,995.44
2022-12-24T12:43:42.433Z,995.50
2022-12-24T12:48:42.359Z,995.56
2022-12-24T12:53:42.297Z,995.61
2022-12-24T12:58:42.228Z,995.68
2022-12-24T13:03:42.176Z,995.75
2022-12-24T13:08:42.089Z,995.73
2022-12-24T13:13:42.030Z,995.70
2022-12-24T13:18:41.956Z,995.71
2022-12-24T13:23:41.897Z,995.74
2022-12-24T13:28:41.827Z,995.78
2022-12-24T13:33:41.761Z,995.91
2022-12-24T13:38:41.688Z,995.99
2022-12-24T13:43:41.622Z,996.08
2022-12-24T13:48:41.551Z,996.27
2022-12-24T13:53:41.491Z,996.38
2022-12-24T13:58:41.415Z,996.48
2022-12-24T14:03:41.366Z,996.49
2022-12-24T14:08:41.285Z,996.52
2022-12-24T14:13:41.221Z,996.59
2022-12-24T14:18:41.170Z,996.63
2022-12-24T14:23:41.097Z,996.68
2022-12-24T14:28:41.020Z,996.71
2022-12-24T14:33:40.955Z,996.73
2022-12-24T14:38:40.894Z,996.77
2022-12-24T14:43:40.823Z,996.79
2022-12-24T14:48:40.747Z,996.80
2022-12-24T14:53:40.693Z,996.87
2022-12-24T14:58:40.612Z,996.89
2022-12-24T15:03:40.601Z,997.10
2022-12-24T15:08:40.502Z,997.20
2022-12-24T15:13:40.440Z,997.17
2022-12-24T15:18:40.343Z,997.23
2022-12-24T15:23:40.292Z,997.36
2022-12-24T15:28:40.211Z,997.35
2022-12-24T15:33:40.155Z,997.46
2022-12-24T15:38:40.083Z,997.45
2022-12-24T15:43:40.029Z,997.54
2022-12-24T15:48:39.948Z,997.57
2022-12-24T15:53:39.890Z,997.72
2022-12-24T15:58:39.819Z,997.83
2022-12-24T16:03:39.849Z,997.83
2022-12-24T16:08:39.678Z,997.89
2022-12-24T16:13:39.626Z,997.88
2022-12-24T16:18:39.544Z,997.90
2022-12-24T16:23:39.488Z,997.92
2022-12-24T16:28:39.407Z,997.94
2022-12-24T16:33:39.354Z,998.01
2022-12-24T16:38:39.277Z,997.93
2022-12-24T16:43:39.219Z,997.95
2022-12-24T16:48:39.147Z,998.05
2022-12-24T16:53:39.084Z,998.07
2022-12-24T16:58:39.017Z,998.17
2022-12-24T17:03:39.033Z,998.31
2022-12-24T17:08:38.879Z,998.37
2022-12-24T17:13:38.818Z,998.43
2022-12-24T17:18:38.748Z,998.44
2022-12-24T17:23:38.687Z,998.49
2022-12-24T17:28:38.608Z,998.52
2022-12-24T17:33:38.552Z,998.61
2022-12-24T17:38:38.474Z,998.80
2022-12-24T17:43:38.414Z,998.79
2022-12-24T17:48:38.356Z,998.83
2022-12-24T17:53:38.284Z,998.82
2022-12-24T17:58:38.211Z,998.84
2022-12-24T18:03:38.202Z,998.87
2022-12-24T18:08:38.076Z,998.90
2022-12-24T18:13:38.022Z,998.90
2022-12-24T18:18:37.944Z,998.87
2022-12-24T18:23:37.885Z,998.96
2022-12-24T18:28:37.810Z,999.07
2022-12-24T18:33:37.766Z,999.16
2022-12-24T18:38:37.677Z,999.30
2022-12-24T18:43:37.632Z,999.36
2022-12-24T18:48:37.555Z,999.22
2022-12-24T18:53:37.487Z,999.31
2022-12-24T18:58:37.415Z,999.38
2022-12-24T19:03:37.357Z,999.41
2022-12-24T19:13:38.253Z,999.45
2022-12-24T19:18:37.144Z,999.37
2022-12-24T19:23:37.083Z,999.40
2022-12-24T19:28:37.010Z,999.41
2022-12-24T19:33:42.209Z,999.46
2022-12-24T19:38:36.878Z,999.57
2022-12-24T19:43:36.828Z,999.61
2022-12-24T19:48:36.747Z,999.60
2022-12-24T19:53:36.696Z,999.57
2022-12-24T19:58:36.626Z,999.50
2022-12-24T20:03:36.634Z,999.60
2022-12-24T20:08:36.478Z,999.68
2022-12-24T20:13:36.421Z,999.70
2022-12-24T20:18:36.351Z,999.64
2022-12-24T20:23:36.290Z,999.72
2022-12-24T20:28:36.216Z,999.78
2022-12-24T20:33:36.153Z,999.86
2022-12-24T20:38:36.088Z,999.84
2022-12-24T20:43:41.394Z,999.83
2022-12-24T20:48:35.948Z,999.83
2022-12-24T20:53:35.895Z,999.96
2022-12-24T20:58:35.815Z,999.90
2022-12-24T21:03:35.857Z,999.82
2022-12-24T21:08:35.679Z,999.84
2022-12-24T21:13:35.620Z,999.81
2022-12-24T21:18:35.593Z,1000.01
2022-12-24T21:23:35.486Z,1000.10
2022-12-24T21:28:35.431Z,1000.12
2022-12-24T21:33:38.273Z,1000.26
2022-12-24T21:38:35.291Z,1000.00
2022-12-24T21:43:35.226Z,1000.21
2022-12-24T21:48:35.148Z,1000.21
2022-12-24T21:53:35.090Z,1000.31
2022-12-24T21:58:35.016Z,1000.38
2022-12-24T22:03:35.082Z,1000.40
2022-12-24T22:08:34.887Z,1000.43
2022-12-24T22:13:34.833Z,1000.48
2022-12-24T22:18:34.755Z,1000.48
2022-12-24T22:23:40.454Z,1000.60
2022-12-24T22:28:34.622Z,1000.58
2022-12-24T22:33:34.559Z,1000.63
2022-12-24T22:38:34.493Z,1000.78
2022-12-24T22:43:34.428Z,1000.76
2022-12-24T22:48:34.349Z,1000.75
2022-12-24T22:53:34.296Z,1000.78
2022-12-24T22:58:34.222Z,1000.82
2022-12-24T23:03:34.339Z,1000.87
2022-12-24T23:08:34.099Z,1000.80
2022-12-24T23:13:34.025Z,1000.81
2022-12-24T23:18:33.979Z,1000.82
2022-12-24T23:23:37.159Z,1000.84
2022-12-24T23:28:33.921Z,1000.83
2022-12-24T23:33:33.909Z,1000.83
2022-12-24T23:38:33.832Z,1000.77
2022-12-24T23:43:33.866Z,1000.90
2022-12-24T23:48:33.856Z,1000.87
2022-12-24T23:53:33.972Z,1000.76
2022-12-24T23:58:33.950Z,1000.66
